sensor_id;sensor_type;location;lat;lon;timestamp;P1;durP1;ratioP1;P2;durP2;ratioP2
75589;SDS011;76096;47.236;11.318;2024-03-08T00:02:06;8.35;;;2.90;;
75589;SDS011;76096;47.236;11.318;2024-03-08T00:04:32;7.70;;;2.92;;
75589;SDS011;76096;47.236;11.318;2024-03-08T00:06:57;10.93;;;3.63;;
75589;SDS011;76096;47.236;11.318;2024-03-08T00:09:23;8.45;;;3.25;;
75589;SDS011;76096;47.236;11.318;2024-03-08T00:11:48;10.25;;;3.53;;
75589;SDS011;76096;47.236;11.318;2024-03-08T00:14:15;8.25;;;3.30;;
75589;SDS011;76096;47.236;11.318;2024-03-08T00:16:41;9.43;;;3.22;;
75589;SDS011;76096;47.236;11.318;2024-03-08T00:19:08;10.57;;;3.80;;
75589;SDS011;76096;47.236;11.318;2024-03-08T00:21:34;10.30;;;3.45;;
75589;SDS011;76096;47.236;11.318;2024-03-08T00:24:00;11.50;;;3.83;;
75589;SDS011;76096;47.236;11.318;2024-03-08T00:26:26;10.38;;;4.00;;
75589;SDS011;76096;47.236;11.318;2024-03-08T00:28:51;10.93;;;3.95;;
75589;SDS011;76096;47.236;11.318;2024-03-08T00:31:17;11.57;;;3.45;;
75589;SDS011;76096;47.236;11.318;2024-03-08T00:33:42;8.60;;;3.17;;
75589;SDS011;76096;47.236;11.318;2024-03-08T00:36:08;13.80;;;4.03;;
75589;SDS011;76096;47.236;11.318;2024-03-08T00:38:33;10.85;;;3.63;;
75589;SDS011;76096;47.236;11.318;2024-03-08T00:40:59;9.88;;;3.15;;
75589;SDS011;76096;47.236;11.318;2024-03-08T00:43:25;7.28;;;2.80;;
75589;SDS011;76096;47.236;11.318;2024-03-08T00:45:51;8.77;;;2.97;;
75589;SDS011;76096;47.236;11.318;2024-03-08T00:48:16;9.35;;;3.20;;
75589;SDS011;76096;47.236;11.318;2024-03-08T00:50:42;8.07;;;3.25;;
75589;SDS011;76096;47.236;11.318;2024-03-08T00:53:10;8.88;;;3.33;;
75589;SDS011;76096;47.236;11.318;2024-03-08T00:55:36;8.98;;;3.25;;
75589;SDS011;76096;47.236;11.318;2024-03-08T00:58:03;8.13;;;3.20;;
75589;SDS011;76096;47.236;11.318;2024-03-08T01:00:29;9.02;;;3.17;;
75589;SDS011;76096;47.236;11.318;2024-03-08T01:02:54;7.45;;;2.70;;
75589;SDS011;76096;47.236;11.318;2024-03-08T01:05:20;8.38;;;3.20;;
75589;SDS011;76096;47.236;11.318;2024-03-08T01:07:46;12.30;;;4.00;;
75589;SDS011;76096;47.236;11.318;2024-03-08T01:10:12;10.57;;;3.25;;
75589;SDS011;76096;47.236;11.318;2024-03-08T01:12:38;7.95;;;2.97;;
75589;SDS011;76096;47.236;11.318;2024-03-08T01:15:04;9.20;;;3.08;;
75589;SDS011;76096;47.236;11.318;2024-03-08T01:17:30;7.53;;;2.60;;
75589;SDS011;76096;47.236;11.318;2024-03-08T01:19:56;10.82;;;3.35;;
75589;SDS011;76096;47.236;11.318;2024-03-08T01:22:21;9.43;;;3.35;;
75589;SDS011;76096;47.236;11.318;2024-03-08T01:24:47;9.05;;;3.35;;
75589;SDS011;76096;47.236;11.318;2024-03-08T01:27:13;9.07;;;2.65;;
75589;SDS011;76096;47.236;11.318;2024-03-08T01:29:39;9.02;;;2.95;;
75589;SDS011;76096;47.236;11.318;2024-03-08T01:32:04;7.13;;;2.97;;
75589;SDS011;76096;47.236;11.318;2024-03-08T01:34:31;12.52;;;3.88;;
75589;SDS011;76096;47.236;11.318;2024-03-08T01:36:58;10.90;;;3.13;;
75589;SDS011;76096;47.236;11.318;2024-03-08T01:39:24;10.18;;;3.17;;
75589;SDS011;76096;47.236;11.318;2024-03-08T01:41:50;12.52;;;3.80;;
75589;SDS011;76096;47.236;11.318;2024-03-08T01:44:15;11.23;;;3.42;;
75589;SDS011;76096;47.236;11.318;2024-03-08T01:46:46;10.73;;;3.33;;
75589;SDS011;76096;47.236;11.318;2024-03-08T01:49:13;8.30;;;2.88;;
75589;SDS011;76096;47.236;11.318;2024-03-08T01:51:39;9.35;;;3.22;;
75589;SDS011;76096;47.236;11.318;2024-03-08T01:54:05;10.00;;;3.40;;
75589;SDS011;76096;47.236;11.318;2024-03-08T01:56:31;9.25;;;3.70;;
75589;SDS011;76096;47.236;11.318;2024-03-08T01:58:57;9.77;;;3.53;;
75589;SDS011;76096;47.236;11.318;2024-03-08T02:01:24;6.57;;;3.00;;
75589;SDS011;76096;47.236;11.318;2024-03-08T02:03:50;7.57;;;3.20;;
75589;SDS011;76096;47.236;11.318;2024-03-08T02:06:16;8.27;;;2.83;;
75589;SDS011;76096;47.236;11.318;2024-03-08T02:08:42;7.93;;;2.92;;
75589;SDS011;76096;47.236;11.318;2024-03-08T02:11:09;9.30;;;2.97;;
75589;SDS011;76096;47.236;11.318;2024-03-08T02:13:35;10.07;;;3.13;;
75589;SDS011;76096;47.236;11.318;2024-03-08T02:16:00;8.57;;;3.38;;
75589;SDS011;76096;47.236;11.318;2024-03-08T02:18:27;9.73;;;4.13;;
75589;SDS011;76096;47.236;11.318;2024-03-08T02:20:54;9.45;;;3.25;;
75589;SDS011;76096;47.236;11.318;2024-03-08T02:23:20;10.57;;;3.55;;
75589;SDS011;76096;47.236;11.318;2024-03-08T02:25:50;13.95;;;4.65;;
75589;SDS011;76096;47.236;11.318;2024-03-08T02:28:16;8.77;;;3.63;;
75589;SDS011;76096;47.236;11.318;2024-03-08T02:30:43;9.98;;;3.88;;
75589;SDS011;76096;47.236;11.318;2024-03-08T02:33:12;9.18;;;3.50;;
75589;SDS011;76096;47.236;11.318;2024-03-08T02:35:38;12.77;;;4.35;;
75589;SDS011;76096;47.236;11.318;2024-03-08T02:38:04;14.05;;;4.18;;
75589;SDS011;76096;47.236;11.318;2024-03-08T02:40:30;10.43;;;3.95;;
75589;SDS011;76096;47.236;11.318;2024-03-08T02:42:55;9.90;;;3.00;;
75589;SDS011;76096;47.236;11.318;2024-03-08T02:45:21;26.02;;;11.85;;
75589;SDS011;76096;47.236;11.318;2024-03-08T02:47:46;17.48;;;6.85;;
75589;SDS011;76096;47.236;11.318;2024-03-08T02:50:14;19.27;;;8.07;;
75589;SDS011;76096;47.236;11.318;2024-03-08T02:52:41;14.18;;;5.53;;
75589;SDS011;76096;47.236;11.318;2024-03-08T02:55:07;9.38;;;3.55;;
75589;SDS011;76096;47.236;11.318;2024-03-08T02:57:35;10.18;;;3.47;;
75589;SDS011;76096;47.236;11.318;2024-03-08T03:00:02;9.05;;;3.05;;
75589;SDS011;76096;47.236;11.318;2024-03-08T03:02:29;7.60;;;3.00;;
75589;SDS011;76096;47.236;11.318;2024-03-08T03:04:54;10.15;;;3.67;;
75589;SDS011;76096;47.236;11.318;2024-03-08T03:07:20;7.10;;;2.28;;
75589;SDS011;76096;47.236;11.318;2024-03-08T03:09:46;9.55;;;2.97;;
75589;SDS011;76096;47.236;11.318;2024-03-08T03:12:12;9.63;;;2.78;;
75589;SDS011;76096;47.236;11.318;2024-03-08T03:14:39;7.43;;;2.67;;
75589;SDS011;76096;47.236;11.318;2024-03-08T03:17:04;5.15;;;2.50;;
75589;SDS011;76096;47.236;11.318;2024-03-08T03:19:30;9.10;;;2.75;;
75589;SDS011;76096;47.236;11.318;2024-03-08T03:21:56;6.30;;;2.55;;
75589;SDS011;76096;47.236;11.318;2024-03-08T03:24:22;5.88;;;1.85;;
75589;SDS011;76096;47.236;11.318;2024-03-08T03:26:48;6.57;;;2.05;;
75589;SDS011;76096;47.236;11.318;2024-03-08T03:29:14;6.72;;;2.70;;
75589;SDS011;76096;47.236;11.318;2024-03-08T03:31:42;7.70;;;2.60;;
75589;SDS011;76096;47.236;11.318;2024-03-08T03:34:10;7.65;;;2.58;;
75589;SDS011;76096;47.236;11.318;2024-03-08T03:36:36;8.68;;;2.20;;
75589;SDS011;76096;47.236;11.318;2024-03-08T03:39:03;7.82;;;2.78;;
75589;SDS011;76096;47.236;11.318;2024-03-08T03:41:41;8.10;;;2.70;;
75589;SDS011;76096;47.236;11.318;2024-03-08T03:44:07;4.97;;;1.70;;
75589;SDS011;76096;47.236;11.318;2024-03-08T03:46:33;7.75;;;2.08;;
75589;SDS011;76096;47.236;11.318;2024-03-08T03:48:59;6.25;;;2.45;;
75589;SDS011;76096;47.236;11.318;2024-03-08T03:51:24;5.30;;;1.50;;
75589;SDS011;76096;47.236;11.318;2024-03-08T03:53:51;6.35;;;2.22;;
75589;SDS011;76096;47.236;11.318;2024-03-08T03:56:18;5.40;;;1.92;;
75589;SDS011;76096;47.236;11.318;2024-03-08T03:58:44;6.30;;;2.55;;
75589;SDS011;76096;47.236;11.318;2024-03-08T04:01:09;7.88;;;2.45;;
75589;SDS011;76096;47.236;11.318;2024-03-08T04:03:35;5.68;;;1.90;;
75589;SDS011;76096;47.236;11.318;2024-03-08T04:06:02;7.75;;;2.75;;
75589;SDS011;76096;47.236;11.318;2024-03-08T04:08:30;7.97;;;2.83;;
75589;SDS011;76096;47.236;11.318;2024-03-08T04:10:56;7.90;;;2.15;;
75589;SDS011;76096;47.236;11.318;2024-03-08T04:13:23;5.88;;;1.95;;
75589;SDS011;76096;47.236;11.318;2024-03-08T04:15:48;5.40;;;2.03;;
75589;SDS011;76096;47.236;11.318;2024-03-08T04:18:14;5.90;;;1.67;;
75589;SDS011;76096;47.236;11.318;2024-03-08T04:20:39;5.80;;;1.80;;
75589;SDS011;76096;47.236;11.318;2024-03-08T04:23:05;6.18;;;2.30;;
75589;SDS011;76096;47.236;11.318;2024-03-08T04:25:31;7.05;;;2.70;;
75589;SDS011;76096;47.236;11.318;2024-03-08T04:27:57;7.13;;;1.75;;
75589;SDS011;76096;47.236;11.318;2024-03-08T04:30:22;5.93;;;2.15;;
75589;SDS011;76096;47.236;11.318;2024-03-08T04:32:48;10.82;;;2.50;;
75589;SDS011;76096;47.236;11.318;2024-03-08T04:35:14;7.97;;;3.25;;
75589;SDS011;76096;47.236;11.318;2024-03-08T04:37:40;5.38;;;2.08;;
75589;SDS011;76096;47.236;11.318;2024-03-08T04:40:06;5.95;;;2.03;;
75589;SDS011;76096;47.236;11.318;2024-03-08T04:42:32;7.88;;;2.88;;
75589;SDS011;76096;47.236;11.318;2024-03-08T04:44:58;10.77;;;4.78;;
75589;SDS011;76096;47.236;11.318;2024-03-08T04:47:24;8.52;;;2.90;;
75589;SDS011;76096;47.236;11.318;2024-03-08T04:49:50;8.65;;;3.17;;
75589;SDS011;76096;47.236;11.318;2024-03-08T04:52:15;8.65;;;3.03;;
75589;SDS011;76096;47.236;11.318;2024-03-08T04:54:41;6.00;;;2.35;;
75589;SDS011;76096;47.236;11.318;2024-03-08T04:57:07;21.17;;;6.78;;
75589;SDS011;76096;47.236;11.318;2024-03-08T04:59:32;25.48;;;9.23;;
75589;SDS011;76096;47.236;11.318;2024-03-08T05:01:58;29.15;;;9.07;;
75589;SDS011;76096;47.236;11.318;2024-03-08T05:04:23;16.80;;;5.05;;
75589;SDS011;76096;47.236;11.318;2024-03-08T05:06:49;12.43;;;4.85;;
75589;SDS011;76096;47.236;11.318;2024-03-08T05:09:15;13.63;;;5.75;;
75589;SDS011;76096;47.236;11.318;2024-03-08T05:11:41;12.05;;;4.93;;
75589;SDS011;76096;47.236;11.318;2024-03-08T05:14:08;13.07;;;4.53;;
75589;SDS011;76096;47.236;11.318;2024-03-08T05:16:33;11.40;;;4.55;;
75589;SDS011;76096;47.236;11.318;2024-03-08T05:18:59;11.45;;;4.63;;
75589;SDS011;76096;47.236;11.318;2024-03-08T05:21:24;10.20;;;4.28;;
75589;SDS011;76096;47.236;11.318;2024-03-08T05:23:50;32.53;;;10.55;;
75589;SDS011;76096;47.236;11.318;2024-03-08T05:26:16;25.70;;;10.05;;
75589;SDS011;76096;47.236;11.318;2024-03-08T05:28:41;10.80;;;4.82;;
75589;SDS011;76096;47.236;11.318;2024-03-08T05:31:07;9.13;;;3.03;;
75589;SDS011;76096;47.236;11.318;2024-03-08T05:33:33;5.97;;;2.17;;
75589;SDS011;76096;47.236;11.318;2024-03-08T05:36:02;9.23;;;2.63;;
75589;SDS011;76096;47.236;11.318;2024-03-08T05:38:28;8.25;;;3.22;;
75589;SDS011;76096;47.236;11.318;2024-03-08T05:40:54;6.97;;;2.88;;
75589;SDS011;76096;47.236;11.318;2024-03-08T05:43:20;12.27;;;6.03;;
75589;SDS011;76096;47.236;11.318;2024-03-08T05:45:46;12.43;;;3.55;;
75589;SDS011;76096;47.236;11.318;2024-03-08T05:48:13;7.32;;;2.47;;
75589;SDS011;76096;47.236;11.318;2024-03-08T05:50:38;5.25;;;2.45;;
75589;SDS011;76096;47.236;11.318;2024-03-08T05:53:04;9.75;;;3.85;;
75589;SDS011;76096;47.236;11.318;2024-03-08T05:55:32;12.38;;;4.55;;
75589;SDS011;76096;47.236;11.318;2024-03-08T05:58:01;9.57;;;3.13;;
75589;SDS011;76096;47.236;11.318;2024-03-08T06:00:27;7.75;;;2.70;;
75589;SDS011;76096;47.236;11.318;2024-03-08T06:02:52;5.90;;;2.08;;
75589;SDS011;76096;47.236;11.318;2024-03-08T06:05:18;4.30;;;1.77;;
75589;SDS011;76096;47.236;11.318;2024-03-08T06:07:44;7.93;;;2.70;;
75589;SDS011;76096;47.236;11.318;2024-03-08T06:10:09;8.40;;;2.60;;
75589;SDS011;76096;47.236;11.318;2024-03-08T06:12:37;7.63;;;2.75;;
75589;SDS011;76096;47.236;11.318;2024-03-08T06:15:09;9.73;;;3.65;;
75589;SDS011;76096;47.236;11.318;2024-03-08T06:17:41;10.40;;;3.33;;
75589;SDS011;76096;47.236;11.318;2024-03-08T06:20:07;18.05;;;7.30;;
75589;SDS011;76096;47.236;11.318;2024-03-08T06:22:39;10.68;;;3.90;;
75589;SDS011;76096;47.236;11.318;2024-03-08T06:25:11;7.53;;;2.90;;
75589;SDS011;76096;47.236;11.318;2024-03-08T06:27:40;5.68;;;1.63;;
75589;SDS011;76096;47.236;11.318;2024-03-08T06:30:07;7.32;;;2.22;;
75589;SDS011;76096;47.236;11.318;2024-03-08T06:32:35;7.97;;;2.58;;
75589;SDS011;76096;47.236;11.318;2024-03-08T06:35:03;7.00;;;2.55;;
75589;SDS011;76096;47.236;11.318;2024-03-08T06:37:34;11.85;;;3.42;;
75589;SDS011;76096;47.236;11.318;2024-03-08T06:40:00;11.10;;;4.00;;
75589;SDS011;76096;47.236;11.318;2024-03-08T06:42:27;15.75;;;6.40;;
75589;SDS011;76096;47.236;11.318;2024-03-08T06:44:53;10.73;;;4.53;;
75589;SDS011;76096;47.236;11.318;2024-03-08T06:47:21;14.10;;;5.72;;
75589;SDS011;76096;47.236;11.318;2024-03-08T06:49:47;23.95;;;8.75;;
75589;SDS011;76096;47.236;11.318;2024-03-08T06:52:14;14.68;;;7.13;;
75589;SDS011;76096;47.236;11.318;2024-03-08T06:54:40;20.83;;;8.38;;
75589;SDS011;76096;47.236;11.318;2024-03-08T06:57:05;16.60;;;7.03;;
75589;SDS011;76096;47.236;11.318;2024-03-08T06:59:34;12.20;;;6.22;;
75589;SDS011;76096;47.236;11.318;2024-03-08T07:02:01;10.73;;;5.13;;
75589;SDS011;76096;47.236;11.318;2024-03-08T07:04:27;12.13;;;4.88;;
75589;SDS011;76096;47.236;11.318;2024-03-08T07:06:57;9.77;;;3.53;;
75589;SDS011;76096;47.236;11.318;2024-03-08T07:09:23;10.50;;;4.22;;
75589;SDS011;76096;47.236;11.318;2024-03-08T07:11:50;10.77;;;3.75;;
75589;SDS011;76096;47.236;11.318;2024-03-08T07:14:23;10.70;;;4.00;;
75589;SDS011;76096;47.236;11.318;2024-03-08T07:16:48;13.98;;;5.85;;
75589;SDS011;76096;47.236;11.318;2024-03-08T07:19:14;10.95;;;4.68;;
75589;SDS011;76096;47.236;11.318;2024-03-08T07:21:49;16.88;;;6.97;;
75589;SDS011;76096;47.236;11.318;2024-03-08T07:24:20;8.25;;;4.40;;
75589;SDS011;76096;47.236;11.318;2024-03-08T07:27:05;8.63;;;3.95;;
75589;SDS011;76096;47.236;11.318;2024-03-08T07:29:31;8.90;;;4.00;;
75589;SDS011;76096;47.236;11.318;2024-03-08T07:31:58;11.25;;;4.68;;
75589;SDS011;76096;47.236;11.318;2024-03-08T07:34:42;12.60;;;4.50;;
75589;SDS011;76096;47.236;11.318;2024-03-08T07:37:07;9.38;;;4.90;;
75589;SDS011;76096;47.236;11.318;2024-03-08T07:39:36;7.32;;;3.15;;
75589;SDS011;76096;47.236;11.318;2024-03-08T07:42:19;7.45;;;3.15;;
75589;SDS011;76096;47.236;11.318;2024-03-08T07:44:51;5.88;;;2.42;;
75589;SDS011;76096;47.236;11.318;2024-03-08T07:47:17;6.50;;;2.65;;
75589;SDS011;76096;47.236;11.318;2024-03-08T07:49:43;6.20;;;2.10;;
75589;SDS011;76096;47.236;11.318;2024-03-08T07:52:09;6.30;;;2.90;;
75589;SDS011;76096;47.236;11.318;2024-03-08T07:54:40;15.88;;;7.70;;
75589;SDS011;76096;47.236;11.318;2024-03-08T07:57:06;7.85;;;3.53;;
75589;SDS011;76096;47.236;11.318;2024-03-08T07:59:32;7.18;;;3.13;;
75589;SDS011;76096;47.236;11.318;2024-03-08T08:01:58;7.22;;;2.63;;
75589;SDS011;76096;47.236;11.318;2024-03-08T08:04:24;6.32;;;2.50;;
75589;SDS011;76096;47.236;11.318;2024-03-08T08:06:50;6.47;;;2.88;;
75589;SDS011;76096;47.236;11.318;2024-03-08T08:09:16;8.50;;;3.22;;
75589;SDS011;76096;47.236;11.318;2024-03-08T08:11:53;7.38;;;3.22;;
75589;SDS011;76096;47.236;11.318;2024-03-08T08:14:20;6.88;;;2.83;;
75589;SDS011;76096;47.236;11.318;2024-03-08T08:16:46;8.10;;;3.40;;
75589;SDS011;76096;47.236;11.318;2024-03-08T08:19:14;8.23;;;3.20;;
75589;SDS011;76096;47.236;11.318;2024-03-08T08:21:40;9.70;;;4.10;;
75589;SDS011;76096;47.236;11.318;2024-03-08T08:24:06;9.60;;;3.70;;
75589;SDS011;76096;47.236;11.318;2024-03-08T08:26:32;10.25;;;4.38;;
75589;SDS011;76096;47.236;11.318;2024-03-08T08:29:01;8.35;;;3.63;;
75589;SDS011;76096;47.236;11.318;2024-03-08T08:31:26;9.68;;;3.78;;
75589;SDS011;76096;47.236;11.318;2024-03-08T08:33:52;8.88;;;3.38;;
75589;SDS011;76096;47.236;11.318;2024-03-08T08:36:26;8.18;;;3.30;;
75589;SDS011;76096;47.236;11.318;2024-03-08T08:38:54;7.78;;;2.90;;
75589;SDS011;76096;47.236;11.318;2024-03-08T08:41:21;10.60;;;3.33;;
75589;SDS011;76096;47.236;11.318;2024-03-08T08:43:47;9.35;;;3.60;;
75589;SDS011;76096;47.236;11.318;2024-03-08T08:46:17;8.05;;;3.75;;
75589;SDS011;76096;47.236;11.318;2024-03-08T08:48:42;8.48;;;3.72;;
75589;SDS011;76096;47.236;11.318;2024-03-08T08:51:10;7.57;;;3.13;;
75589;SDS011;76096;47.236;11.318;2024-03-08T08:53:39;8.98;;;3.03;;
75589;SDS011;76096;47.236;11.318;2024-03-08T08:56:08;10.70;;;3.63;;
75589;SDS011;76096;47.236;11.318;2024-03-08T08:58:34;7.97;;;2.92;;
75589;SDS011;76096;47.236;11.318;2024-03-08T09:01:00;7.60;;;2.90;;
75589;SDS011;76096;47.236;11.318;2024-03-08T09:03:26;7.03;;;3.20;;
75589;SDS011;76096;47.236;11.318;2024-03-08T09:05:54;7.88;;;2.75;;
75589;SDS011;76096;47.236;11.318;2024-03-08T09:08:20;7.45;;;3.35;;
75589;SDS011;76096;47.236;11.318;2024-03-08T09:10:46;6.35;;;2.70;;
75589;SDS011;76096;47.236;11.318;2024-03-08T09:13:13;8.57;;;2.97;;
75589;SDS011;76096;47.236;11.318;2024-03-08T09:15:39;7.38;;;2.95;;
75589;SDS011;76096;47.236;11.318;2024-03-08T09:18:05;7.28;;;2.95;;
75589;SDS011;76096;47.236;11.318;2024-03-08T09:20:31;7.75;;;2.97;;
75589;SDS011;76096;47.236;11.318;2024-03-08T09:22:57;9.52;;;2.88;;
75589;SDS011;76096;47.236;11.318;2024-03-08T09:25:22;7.68;;;2.80;;
75589;SDS011;76096;47.236;11.318;2024-03-08T09:27:48;8.30;;;3.20;;
75589;SDS011;76096;47.236;11.318;2024-03-08T09:30:14;7.70;;;2.72;;
75589;SDS011;76096;47.236;11.318;2024-03-08T09:32:40;7.78;;;2.90;;
75589;SDS011;76096;47.236;11.318;2024-03-08T09:35:06;6.75;;;2.25;;
75589;SDS011;76096;47.236;11.318;2024-03-08T09:37:33;6.53;;;2.42;;
75589;SDS011;76096;47.236;11.318;2024-03-08T09:39:59;7.32;;;2.58;;
75589;SDS011;76096;47.236;11.318;2024-03-08T09:42:25;6.80;;;2.92;;
75589;SDS011;76096;47.236;11.318;2024-03-08T09:44:51;7.15;;;2.70;;
75589;SDS011;76096;47.236;11.318;2024-03-08T09:47:17;7.95;;;2.85;;
75589;SDS011;76096;47.236;11.318;2024-03-08T09:49:43;12.82;;;5.93;;
75589;SDS011;76096;47.236;11.318;2024-03-08T09:52:09;14.95;;;7.35;;
75589;SDS011;76096;47.236;11.318;2024-03-08T09:54:37;15.13;;;6.75;;
75589;SDS011;76096;47.236;11.318;2024-03-08T09:57:04;11.60;;;5.15;;
75589;SDS011;76096;47.236;11.318;2024-03-08T09:59:30;11.82;;;5.32;;
75589;SDS011;76096;47.236;11.318;2024-03-08T10:02:01;18.88;;;8.60;;
75589;SDS011;76096;47.236;11.318;2024-03-08T10:04:28;7.30;;;2.90;;
75589;SDS011;76096;47.236;11.318;2024-03-08T10:10:06;9.20;;;3.40;;
75589;SDS011;76096;47.236;11.318;2024-03-08T10:12:34;12.95;;;4.93;;
75589;SDS011;76096;47.236;11.318;2024-03-08T10:14:59;7.57;;;3.42;;
75589;SDS011;76096;47.236;11.318;2024-03-08T10:17:25;9.35;;;3.33;;
75589;SDS011;76096;47.236;11.318;2024-03-08T10:19:51;7.90;;;3.13;;
75589;SDS011;76096;47.236;11.318;2024-03-08T10:22:18;5.60;;;2.83;;
75589;SDS011;76096;47.236;11.318;2024-03-08T10:24:45;7.45;;;2.95;;
75589;SDS011;76096;47.236;11.318;2024-03-08T10:27:13;9.32;;;2.70;;
75589;SDS011;76096;47.236;11.318;2024-03-08T10:29:42;7.50;;;2.83;;
75589;SDS011;76096;47.236;11.318;2024-03-08T10:32:29;7.97;;;3.08;;
75589;SDS011;76096;47.236;11.318;2024-03-08T10:34:55;9.00;;;3.22;;
75589;SDS011;76096;47.236;11.318;2024-03-08T10:37:27;7.28;;;2.58;;
75589;SDS011;76096;47.236;11.318;2024-03-08T10:40:36;7.15;;;2.88;;
75589;SDS011;76096;47.236;11.318;2024-03-08T10:42:58;9.52;;;3.67;;
75589;SDS011;76096;47.236;11.318;2024-03-08T10:48:03;6.10;;;2.70;;
75589;SDS011;76096;47.236;11.318;2024-03-08T10:50:34;7.40;;;2.63;;
75589;SDS011;76096;47.236;11.318;2024-03-08T10:53:03;6.22;;;2.70;;
75589;SDS011;76096;47.236;11.318;2024-03-08T10:55:39;6.72;;;2.45;;
75589;SDS011;76096;47.236;11.318;2024-03-08T10:58:06;7.45;;;2.60;;
75589;SDS011;76096;47.236;11.318;2024-03-08T11:00:32;5.18;;;2.10;;
75589;SDS011;76096;47.236;11.318;2024-03-08T11:02:58;5.50;;;1.80;;
75589;SDS011;76096;47.236;11.318;2024-03-08T11:05:38;6.97;;;2.08;;
75589;SDS011;76096;47.236;11.318;2024-03-08T11:10:49;4.43;;;1.70;;
75589;SDS011;76096;47.236;11.318;2024-03-08T11:13:33;4.22;;;1.50;;
75589;SDS011;76096;47.236;11.318;2024-03-08T11:16:02;5.82;;;1.92;;
75589;SDS011;76096;47.236;11.318;2024-03-08T11:18:33;4.93;;;1.70;;
75589;SDS011;76096;47.236;11.318;2024-03-08T11:21:02;5.80;;;1.80;;
75589;SDS011;76096;47.236;11.318;2024-03-08T11:23:31;5.75;;;1.50;;
75589;SDS011;76096;47.236;11.318;2024-03-08T11:25:58;6.07;;;1.80;;
75589;SDS011;76096;47.236;11.318;2024-03-08T11:28:24;4.30;;;1.60;;
75589;SDS011;76096;47.236;11.318;2024-03-08T11:33:29;5.18;;;1.48;;
75589;SDS011;76096;47.236;11.318;2024-03-08T11:36:41;5.30;;;1.80;;
75589;SDS011;76096;47.236;11.318;2024-03-08T11:38:49;4.32;;;1.45;;
75589;SDS011;76096;47.236;11.318;2024-03-08T11:41:18;3.55;;;1.30;;
75589;SDS011;76096;47.236;11.318;2024-03-08T11:43:46;5.22;;;1.60;;
75589;SDS011;76096;47.236;11.318;2024-03-08T11:46:12;4.63;;;1.50;;
75589;SDS011;76096;47.236;11.318;2024-03-08T11:48:41;4.43;;;1.50;;
75589;SDS011;76096;47.236;11.318;2024-03-08T11:51:08;4.07;;;1.40;;
75589;SDS011;76096;47.236;11.318;2024-03-08T11:53:33;4.28;;;1.40;;
75589;SDS011;76096;47.236;11.318;2024-03-08T11:56:19;4.75;;;1.40;;
75589;SDS011;76096;47.236;11.318;2024-03-08T11:58:55;3.40;;;1.10;;
75589;SDS011;76096;47.236;11.318;2024-03-08T12:01:22;3.50;;;1.30;;
75589;SDS011;76096;47.236;11.318;2024-03-08T12:03:58;4.53;;;1.40;;
75589;SDS011;76096;47.236;11.318;2024-03-08T12:06:25;4.55;;;1.50;;
75589;SDS011;76096;47.236;11.318;2024-03-08T12:08:50;4.10;;;1.50;;
75589;SDS011;76096;47.236;11.318;2024-03-08T12:11:22;4.88;;;1.60;;
75589;SDS011;76096;47.236;11.318;2024-03-08T12:13:48;4.40;;;1.40;;
75589;SDS011;76096;47.236;11.318;2024-03-08T12:16:17;5.13;;;1.60;;
75589;SDS011;76096;47.236;11.318;2024-03-08T12:18:50;5.40;;;1.52;;
75589;SDS011;76096;47.236;11.318;2024-03-08T12:21:17;3.90;;;1.20;;
75589;SDS011;76096;47.236;11.318;2024-03-08T12:23:45;5.28;;;1.50;;
75589;SDS011;76096;47.236;11.318;2024-03-08T12:28:44;5.90;;;1.65;;
75589;SDS011;76096;47.236;11.318;2024-03-08T12:31:13;3.42;;;1.08;;
75589;SDS011;76096;47.236;11.318;2024-03-08T12:36:17;5.55;;;1.20;;
75589;SDS011;76096;47.236;11.318;2024-03-08T12:38:44;5.05;;;1.33;;
75589;SDS011;76096;47.236;11.318;2024-03-08T12:41:16;4.20;;;1.15;;
75589;SDS011;76096;47.236;11.318;2024-03-08T12:43:43;3.70;;;1.33;;
75589;SDS011;76096;47.236;11.318;2024-03-08T12:46:18;3.78;;;1.25;;
75589;SDS011;76096;47.236;11.318;2024-03-08T12:48:51;4.45;;;1.20;;
75589;SDS011;76096;47.236;11.318;2024-03-08T12:51:19;4.45;;;1.45;;
75589;SDS011;76096;47.236;11.318;2024-03-08T12:53:45;4.43;;;1.20;;
75589;SDS011;76096;47.236;11.318;2024-03-08T12:56:13;3.72;;;0.98;;
75589;SDS011;76096;47.236;11.318;2024-03-08T12:58:45;3.17;;;1.05;;
75589;SDS011;76096;47.236;11.318;2024-03-08T13:01:10;4.72;;;1.35;;
75589;SDS011;76096;47.236;11.318;2024-03-08T13:03:37;2.67;;;0.88;;
75589;SDS011;76096;47.236;11.318;2024-03-08T13:06:03;3.13;;;0.93;;
75589;SDS011;76096;47.236;11.318;2024-03-08T13:08:36;2.50;;;0.98;;
75589;SDS011;76096;47.236;11.318;2024-03-08T13:11:04;2.80;;;0.90;;
75589;SDS011;76096;47.236;11.318;2024-03-08T13:13:30;6.40;;;0.98;;
75589;SDS011;76096;47.236;11.318;2024-03-08T13:15:55;3.20;;;0.93;;
75589;SDS011;76096;47.236;11.318;2024-03-08T13:18:26;1.85;;;0.60;;
75589;SDS011;76096;47.236;11.318;2024-03-08T13:20:52;3.05;;;0.73;;
75589;SDS011;76096;47.236;11.318;2024-03-08T13:23:19;2.50;;;0.90;;
75589;SDS011;76096;47.236;11.318;2024-03-08T13:25:45;4.32;;;0.95;;
75589;SDS011;76096;47.236;11.318;2024-03-08T13:28:12;3.38;;;0.90;;
75589;SDS011;76096;47.236;11.318;2024-03-08T13:30:38;2.53;;;0.80;;
75589;SDS011;76096;47.236;11.318;2024-03-08T13:33:04;5.25;;;0.73;;
75589;SDS011;76096;47.236;11.318;2024-03-08T13:35:30;2.65;;;0.88;;
75589;SDS011;76096;47.236;11.318;2024-03-08T13:37:59;2.30;;;0.73;;
75589;SDS011;76096;47.236;11.318;2024-03-08T13:40:28;2.97;;;0.75;;
75589;SDS011;76096;47.236;11.318;2024-03-08T13:42:53;1.38;;;0.60;;
75589;SDS011;76096;47.236;11.318;2024-03-08T13:45:19;2.03;;;0.80;;
75589;SDS011;76096;47.236;11.318;2024-03-08T13:47:48;2.97;;;0.80;;
75589;SDS011;76096;47.236;11.318;2024-03-08T13:50:16;3.47;;;1.00;;
75589;SDS011;76096;47.236;11.318;2024-03-08T13:52:46;3.15;;;1.00;;
75589;SDS011;76096;47.236;11.318;2024-03-08T13:55:17;2.33;;;0.75;;
75589;SDS011;76096;47.236;11.318;2024-03-08T13:57:43;2.53;;;0.70;;
75589;SDS011;76096;47.236;11.318;2024-03-08T14:00:10;1.33;;;0.65;;
75589;SDS011;76096;47.236;11.318;2024-03-08T14:02:37;3.08;;;0.82;;
75589;SDS011;76096;47.236;11.318;2024-03-08T14:05:06;2.90;;;0.70;;
75589;SDS011;76096;47.236;11.318;2024-03-08T14:07:34;2.05;;;0.73;;
75589;SDS011;76096;47.236;11.318;2024-03-08T14:10:02;1.42;;;0.63;;
75589;SDS011;76096;47.236;11.318;2024-03-08T14:12:28;3.63;;;0.90;;
75589;SDS011;76096;47.236;11.318;2024-03-08T14:14:55;1.70;;;0.80;;
75589;SDS011;76096;47.236;11.318;2024-03-08T14:17:24;2.38;;;0.80;;
75589;SDS011;76096;47.236;11.318;2024-03-08T14:19:52;3.13;;;0.80;;
75589;SDS011;76096;47.236;11.318;2024-03-08T14:22:18;2.90;;;0.90;;
75589;SDS011;76096;47.236;11.318;2024-03-08T14:24:43;2.65;;;0.60;;
75589;SDS011;76096;47.236;11.318;2024-03-08T14:27:09;5.30;;;1.13;;
75589;SDS011;76096;47.236;11.318;2024-03-08T14:29:37;2.35;;;0.82;;
75589;SDS011;76096;47.236;11.318;2024-03-08T14:32:04;3.00;;;0.90;;
75589;SDS011;76096;47.236;11.318;2024-03-08T14:34:31;2.97;;;1.00;;
75589;SDS011;76096;47.236;11.318;2024-03-08T14:36:59;3.05;;;0.90;;
75589;SDS011;76096;47.236;11.318;2024-03-08T14:39:25;2.13;;;0.80;;
75589;SDS011;76096;47.236;11.318;2024-03-08T14:41:54;2.15;;;0.80;;
75589;SDS011;76096;47.236;11.318;2024-03-08T14:44:23;2.55;;;0.93;;
75589;SDS011;76096;47.236;11.318;2024-03-08T14:46:52;3.05;;;1.10;;
75589;SDS011;76096;47.236;11.318;2024-03-08T14:49:18;2.92;;;0.80;;